createdAt,value
2023-04-15T06:02:33.349Z,1.67
2023-04-15T06:05:00.862Z,2.13
2023-04-15T06:07:27.339Z,2.13
2023-04-15T06:09:53.920Z,2.17
2023-04-15T06:12:20.396Z,2.10
2023-04-15T06:14:46.876Z,2.30
2023-04-15T06:17:14.894Z,2.63
2023-04-15T06:19:42.522Z,2.85
2023-04-15T06:22:09.045Z,2.90
2023-04-15T06:24:36.994Z,2.40
2023-04-15T06:27:03.570Z,3.05
2023-04-15T06:29:30.510Z,3.15
2023-04-15T06:31:57.485Z,2.70
2023-04-15T06:34:23.995Z,3.22
2023-04-15T06:36:50.704Z,3.42
2023-04-15T06:39:17.217Z,3.00
2023-04-15T06:41:43.685Z,3.47
2023-04-15T06:44:10.112Z,2.80
2023-04-15T06:46:36.680Z,2.90
2023-04-15T06:49:03.820Z,3.00
2023-04-15T06:51:31.298Z,3.25
2023-04-15T06:53:57.764Z,3.00
2023-04-15T06:56:24.259Z,3.00
2023-04-15T06:58:50.692Z,4.75
2023-04-15T07:01:17.201Z,5.53
2023-04-15T07:03:43.689Z,6.20
2023-04-15T07:06:10.146Z,6.15
2023-04-15T07:08:36.653Z,5.80
2023-04-15T07:11:03.328Z,5.78
2023-04-15T07:13:31.446Z,5.85
2023-04-15T07:15:58.423Z,8.23
2023-04-15T07:18:24.890Z,9.02
2023-04-15T07:20:51.538Z,9.63
2023-04-15T07:23:18.328Z,7.95
2023-04-15T07:25:44.779Z,7.72
2023-04-15T07:28:11.321Z,7.82
2023-04-15T07:30:38.329Z,7.25
2023-04-15T07:33:04.889Z,7.00
2023-04-15T07:35:31.317Z,4.85
2023-04-15T07:37:57.767Z,5.45
2023-04-15T07:40:24.325Z,4.10
2023-04-15T07:42:51.377Z,4.07
2023-04-15T07:45:17.800Z,4.30
2023-04-15T07:47:44.242Z,4.40
2023-04-15T07:50:11.429Z,3.85
2023-04-15T07:52:40.710Z,4.07
2023-04-15T07:55:08.464Z,4.25
2023-04-15T07:57:36.106Z,4.05
2023-04-15T08:00:05.777Z,4.10
2023-04-15T08:02:40.470Z,4.93
2023-04-15T08:05:07.584Z,4.50
2023-04-15T08:07:34.945Z,4.18
2023-04-15T08:10:01.575Z,4.65
2023-04-15T08:12:29.188Z,4.57
2023-04-15T08:14:56.062Z,4.38
2023-04-15T08:17:22.519Z,5.00
2023-04-15T08:19:48.936Z,5.00
2023-04-15T08:22:17.577Z,5.35
2023-04-15T08:24:45.648Z,5.85
2023-04-15T08:27:12.043Z,6.30
2023-04-15T08:29:38.543Z,5.38
2023-04-15T08:32:05.882Z,5.70
2023-04-15T08:34:32.313Z,5.80
2023-04-15T08:36:58.809Z,5.60
2023-04-15T08:39:25.257Z,5.57
2023-04-15T08:42:07.079Z,5.95
2023-04-15T08:44:35.077Z,6.38
2023-04-15T08:47:03.516Z,6.47
2023-04-15T08:49:30.489Z,6.40
2023-04-15T08:51:58.863Z,5.55
2023-04-15T08:54:25.288Z,5.90
2023-04-15T08:56:52.536Z,5.28
2023-04-15T08:59:21.804Z,5.85
2023-04-15T09:01:49.939Z,5.82
2023-04-15T09:04:17.147Z,4.90
2023-04-15T09:06:43.736Z,5.70
2023-04-15T09:09:10.228Z,5.50
2023-04-15T09:11:36.843Z,4.50
2023-04-15T09:14:03.671Z,4.07
2023-04-15T09:16:30.699Z,2.90
2023-04-15T09:18:57.356Z,2.80
2023-04-15T09:21:24.617Z,2.70
2023-04-15T09:23:59.706Z,2.75
2023-04-15T09:26:40.144Z,2.88
2023-04-15T09:29:13.277Z,2.22
2023-04-15T09:31:40.620Z,2.33
2023-04-15T09:34:07.146Z,2.67
2023-04-15T09:36:51.955Z,2.40
2023-04-15T09:39:18.415Z,2.38
2023-04-15T09:41:45.119Z,2.50
2023-04-15T09:44:29.646Z,2.28
2023-04-15T09:46:56.047Z,2.30
2023-04-15T09:49:23.191Z,2.17
2023-04-15T09:52:03.940Z,2.67
2023-04-15T09:54:35.732Z,2.20
2023-04-15T09:57:06.904Z,2.15
2023-04-15T09:59:33.363Z,2.40
2023-04-15T10:02:00.520Z,1.85
2023-04-15T10:04:28.404Z,1.90
2023-04-15T10:06:55.165Z,2.00
2023-04-15T10:09:21.743Z,1.80
2023-04-15T10:11:49.756Z,1.80
2023-04-15T10:14:16.473Z,1.85
2023-04-15T10:16:45.910Z,1.73
2023-04-15T10:19:12.661Z,1.80
2023-04-15T10:21:39.395Z,1.90
2023-04-15T10:24:06.164Z,1.80
2023-04-15T10:26:32.841Z,1.40
2023-04-15T10:29:00.171Z,1.17
2023-04-15T10:31:26.961Z,1.30
2023-04-15T10:33:53.587Z,1.10
2023-04-15T10:36:20.434Z,1.30
2023-04-15T10:38:47.320Z,1.13
2023-04-15T10:41:28.109Z,1.05
2023-04-15T10:43:56.694Z,1.20
2023-04-15T10:46:25.773Z,1.10
2023-04-15T10:51:30.465Z,1.08
2023-04-15T10:53:59.273Z,1.92
2023-04-15T10:56:26.023Z,1.50
2023-04-15T10:58:52.421Z,1.23
2023-04-15T11:01:23.110Z,1.55
2023-04-15T11:03:50.978Z,1.48
2023-04-15T11:06:17.583Z,1.77
2023-04-15T11:08:59.280Z,1.45
2023-04-15T11:12:04.721Z,1.80
2023-04-15T11:14:33.877Z,1.73
2023-04-15T11:17:00.613Z,1.40
2023-04-15T11:19:27.295Z,1.65
2023-04-15T11:21:53.889Z,1.73
2023-04-15T11:24:27.149Z,1.45
2023-04-15T11:27:01.863Z,1.50
2023-04-15T11:29:32.117Z,1.40
2023-04-15T11:32:06.828Z,1.35
2023-04-15T11:34:34.999Z,1.60
2023-04-15T11:37:06.376Z,1.67
2023-04-15T11:39:32.809Z,1.50
2023-04-15T11:41:59.286Z,1.40
2023-04-15T11:44:25.755Z,1.70
2023-04-15T11:46:52.221Z,1.65
2023-04-15T11:49:26.972Z,1.67
2023-04-15T11:51:53.394Z,1.60
2023-04-15T11:54:20.032Z,1.52
2023-04-15T11:56:51.616Z,1.48
2023-04-15T11:59:18.074Z,1.40
2023-04-15T12:01:46.457Z,1.58
2023-04-15T12:04:20.804Z,1.50
2023-04-15T12:06:49.672Z,1.80
2023-04-15T12:09:16.777Z,1.75
2023-04-15T12:11:45.768Z,1.50
2023-04-15T12:14:13.019Z,1.48
2023-04-15T12:16:49.138Z,1.67
2023-04-15T12:19:29.803Z,1.60
2023-04-15T12:22:00.809Z,1.30
2023-04-15T12:24:27.800Z,1.25
2023-04-15T12:26:57.566Z,1.85
2023-04-15T12:29:28.651Z,1.42
2023-04-15T12:32:03.863Z,1.50
2023-04-15T12:34:31.216Z,1.90
2023-04-15T12:36:59.094Z,1.45
2023-04-15T12:39:28.046Z,1.60
2023-04-15T12:41:55.697Z,1.83
2023-04-15T12:44:24.061Z,1.60
2023-04-15T12:46:53.694Z,1.30
2023-04-15T12:49:24.198Z,1.75
2023-04-15T12:51:59.518Z,1.13
2023-04-15T12:54:27.035Z,1.35
2023-04-15T12:56:54.309Z,1.20
2023-04-15T12:59:21.205Z,1.10
2023-04-15T13:01:48.592Z,1.20
2023-04-15T13:04:16.264Z,0.90
2023-04-15T13:06:43.225Z,1.40
2023-04-15T13:09:09.736Z,1.20
2023-04-15T13:11:36.637Z,1.63
2023-04-15T13:14:07.564Z,1.75
2023-04-15T13:16:34.834Z,1.95
2023-04-15T13:19:02.268Z,2.28
2023-04-15T13:21:28.763Z,2.13
2023-04-15T13:23:55.604Z,1.90
2023-04-15T13:26:23.129Z,2.00
2023-04-15T13:28:49.526Z,1.90
2023-04-15T13:31:16.079Z,2.28
2023-04-15T13:33:42.680Z,1.75
2023-04-15T13:36:09.199Z,1.90
2023-04-15T13:38:35.629Z,2.00
2023-04-15T13:41:02.072Z,1.75
2023-04-15T13:43:28.741Z,1.70
2023-04-15T13:45:55.341Z,1.90
2023-04-15T13:48:21.832Z,1.70
2023-04-15T13:50:48.284Z,1.73
2023-04-15T13:53:15.000Z,1.60
2023-04-15T13:55:42.555Z,1.70
2023-04-15T13:58:09.726Z,1.77
2023-04-15T14:00:36.203Z,1.45
2023-04-15T14:03:02.888Z,1.83
2023-04-15T14:05:29.510Z,1.52
2023-04-15T14:07:55.927Z,1.58
2023-04-15T14:10:22.361Z,1.65
2023-04-15T14:12:48.932Z,1.63
2023-04-15T14:15:15.627Z,2.00
2023-04-15T14:17:42.559Z,1.67
2023-04-15T14:20:09.797Z,1.77
2023-04-15T14:22:36.401Z,1.52
2023-04-15T14:25:02.912Z,1.38
2023-04-15T14:27:29.421Z,1.60
2023-04-15T14:29:57.664Z,1.48
2023-04-15T14:32:25.922Z,1.40
2023-04-15T14:34:52.389Z,1.45
2023-04-15T14:37:18.784Z,1.35
2023-04-15T14:39:45.330Z,1.40
2023-04-15T14:42:11.959Z,1.25
2023-04-15T14:44:38.361Z,1.25
2023-04-15T14:47:04.808Z,1.10
2023-04-15T14:49:31.907Z,0.98
2023-04-15T14:51:58.360Z,1.23
2023-04-15T14:54:24.835Z,1.10
2023-04-15T14:56:51.323Z,1.10
2023-04-15T14:59:17.790Z,1.02
2023-04-15T15:01:44.318Z,1.08
2023-04-15T15:04:11.247Z,1.00
2023-04-15T15:06:37.764Z,0.98
2023-04-15T15:09:04.922Z,0.90
2023-04-15T15:11:31.677Z,1.10
2023-04-15T15:13:58.457Z,0.80
2023-04-15T15:16:25.038Z,1.00
2023-04-15T15:18:51.487Z,1.20
2023-04-15T15:21:18.286Z,1.00
2023-04-15T15:23:45.439Z,1.30
2023-04-15T15:26:12.346Z,1.65
2023-04-15T15:28:38.762Z,1.20
2023-04-15T15:31:05.493Z,1.92
2023-04-15T15:33:32.706Z,1.75
2023-04-15T15:35:59.227Z,1.40
2023-04-15T15:38:26.182Z,1.00
2023-04-15T15:40:52.721Z,1.17
2023-04-15T15:43:19.197Z,1.10
2023-04-15T15:45:46.020Z,1.30
2023-04-15T15:48:12.463Z,1.10
2023-04-15T15:50:39.147Z,1.15
2023-04-15T15:53:05.685Z,1.35
2023-04-15T15:55:32.159Z,1.52
2023-04-15T15:57:58.560Z,1.30
2023-04-15T16:00:25.166Z,1.20
2023-04-15T16:03:06.868Z,1.48
2023-04-15T16:05:34.913Z,1.77
2023-04-15T16:08:01.779Z,2.42
2023-04-15T16:10:28.258Z,1.60
2023-04-15T16:12:54.785Z,1.95
2023-04-15T16:15:22.858Z,1.30
2023-04-15T16:17:49.354Z,1.40
2023-04-15T16:20:15.871Z,2.00
2023-04-15T16:22:42.401Z,4.28
2023-04-15T16:25:09.138Z,1.88
2023-04-15T16:27:43.506Z,1.90
2023-04-15T16:30:16.641Z,2.30
2023-04-15T16:32:43.165Z,1.90
2023-04-15T16:35:10.017Z,2.10
2023-04-15T16:37:36.509Z,1.63
2023-04-15T16:40:04.153Z,2.70
2023-04-15T16:42:30.943Z,2.42
2023-04-15T16:44:57.434Z,2.45
2023-04-15T16:47:23.878Z,2.63
2023-04-15T16:49:50.516Z,2.63
2023-04-15T16:52:17.015Z,2.78
2023-04-15T16:54:43.494Z,2.65
2023-04-15T16:57:09.913Z,2.30
2023-04-15T16:59:36.352Z,2.53
2023-04-15T17:02:02.892Z,2.53
2023-04-15T17:04:29.641Z,2.30
2023-04-15T17:06:56.372Z,2.70
2023-04-15T17:09:22.800Z,2.45
2023-04-15T17:11:49.220Z,2.92
2023-04-15T17:14:15.877Z,3.47
2023-04-15T17:16:43.154Z,5.47
2023-04-15T17:19:09.642Z,4.38
2023-04-15T17:21:36.124Z,3.45
2023-04-15T17:24:02.558Z,3.67
2023-04-15T17:26:29.041Z,4.00
2023-04-15T17:28:56.676Z,3.58
2023-04-15T17:31:23.272Z,6.28
2023-04-15T17:33:59.854Z,6.07
2023-04-15T17:36:34.324Z,4.10
2023-04-15T17:39:00.802Z,3.72
2023-04-15T17:41:27.252Z,4.40
2023-04-15T17:43:53.693Z,4.15
2023-04-15T17:46:20.198Z,4.63
2023-04-15T17:48:47.467Z,4.40
2023-04-15T17:51:14.197Z,4.95
2023-04-15T17:53:41.228Z,4.65
2023-04-15T17:56:07.674Z,5.10
2023-04-15T17:58:34.086Z,5.95
2023-04-15T18:01:00.557Z,5.25
2023-04-15T18:03:27.276Z,5.47
2023-04-15T18:05:54.507Z,5.10
2023-04-15T18:08:20.909Z,5.35
2023-04-15T18:10:47.587Z,5.50
2023-04-15T18:13:13.955Z,6.00
2023-04-15T18:15:40.899Z,5.30
2023-04-15T18:18:07.473Z,5.68
2023-04-15T18:20:34.201Z,5.28
2023-04-15T18:23:00.755Z,6.13
2023-04-15T18:25:27.181Z,6.10
2023-04-15T18:27:54.695Z,5.90
2023-04-15T18:30:21.170Z,5.05
2023-04-15T18:32:47.683Z,6.28
2023-04-15T18:35:14.140Z,5.95
2023-04-15T18:37:40.647Z,6.15
2023-04-15T19:30:07.717Z,7.10
2023-04-15T19:32:39.192Z,7.43
2023-04-15T19:36:03.587Z,7.30
2023-04-15T19:38:40.004Z,7.07
2023-04-15T19:41:14.422Z,7.65
2023-04-15T19:43:48.024Z,7.60
2023-04-15T19:46:21.826Z,7.15
2023-04-15T19:49:29.584Z,8.02
2023-04-15T19:52:06.804Z,8.32
2023-04-15T19:54:39.423Z,9.23
2023-04-15T19:57:24.693Z,9.10
2023-04-15T20:00:02.676Z,8.45
2023-04-15T20:02:36.068Z,8.35
2023-04-15T20:05:05.464Z,8.07
2023-04-15T20:07:37.725Z,9.20
2023-04-15T20:10:14.777Z,8.55
2023-04-15T20:12:51.301Z,8.63
2023-04-15T20:15:23.065Z,9.98
2023-04-15T20:17:52.694Z,9.07
2023-04-15T20:20:23.719Z,8.95
2023-04-15T20:22:56.945Z,9.10
2023-04-15T20:25:34.144Z,9.00
2023-04-15T20:28:08.442Z,9.30
2023-04-15T20:30:39.899Z,9.02
2023-04-15T20:33:09.435Z,10.57
2023-04-15T20:35:38.151Z,9.18
2023-04-15T20:38:06.230Z,9.30
2023-04-15T20:40:33.859Z,8.55
2023-04-15T20:43:00.971Z,8.60
2023-04-15T20:45:27.878Z,8.43
2023-04-15T20:47:56.107Z,8.43
2023-04-15T20:50:23.295Z,8.70
2023-04-15T20:52:50.618Z,8.75
2023-04-15T20:55:18.690Z,8.00
2023-04-15T20:57:45.894Z,8.52
2023-04-15T21:00:13.451Z,8.48
2023-04-15T21:02:40.494Z,10.15
2023-04-15T21:05:07.841Z,8.35
2023-04-15T21:07:35.071Z,8.50
2023-04-15T21:10:02.032Z,9.38
2023-04-15T21:12:30.441Z,9.10
2023-04-15T21:14:57.530Z,8.43
2023-04-15T21:17:24.500Z,8.55
2023-04-15T21:19:51.731Z,9.20
2023-04-15T21:22:18.730Z,9.63
2023-04-15T21:24:45.786Z,8.20
2023-04-15T21:27:12.661Z,9.25
2023-04-15T21:29:40.462Z,9.77
2023-04-15T21:32:07.657Z,8.77
2023-04-15T21:34:34.675Z,9.75
2023-04-15T21:37:02.131Z,9.73
2023-04-15T21:39:28.862Z,9.60
2023-04-15T21:41:56.664Z,9.57
2023-04-15T21:44:23.942Z,8.88
2023-04-15T21:46:51.168Z,8.95
2023-04-15T21:49:17.825Z,9.13
2023-04-15T21:51:45.581Z,7.80
2023-04-15T21:54:12.495Z,8.23
2023-04-15T21:56:39.487Z,8.05
2023-04-15T21:59:06.531Z,8.00
2023-04-15T22:01:33.380Z,7.80
2023-04-15T22:04:00.156Z,6.80
2023-04-15T22:06:27.303Z,7.35
2023-04-15T22:08:57.478Z,6.68
2023-04-15T22:11:28.658Z,6.82
2023-04-15T22:13:56.633Z,6.82
2023-04-15T22:16:24.547Z,6.70
2023-04-15T22:18:51.300Z,6.03
2023-04-15T22:21:17.868Z,6.15
2023-04-15T22:23:48.421Z,6.45
2023-04-15T22:26:15.028Z,5.60
2023-04-15T22:28:41.838Z,5.90
2023-04-15T22:31:08.408Z,6.25
2023-04-15T22:33:35.106Z,5.43
2023-04-15T22:36:02.304Z,5.60
2023-04-15T22:38:29.229Z,6.47
2023-04-15T22:40:56.099Z,5.85
2023-04-15T22:43:22.698Z,6.13
2023-04-15T22:45:53.084Z,5.53
2023-04-15T22:48:20.395Z,6.40
2023-04-15T22:50:47.603Z,6.63
2023-04-15T22:53:16.336Z,7.15
2023-04-15T22:55:49.211Z,6.35
2023-04-15T22:58:16.991Z,6.50
2023-04-15T23:00:43.922Z,6.38
2023-04-15T23:03:10.999Z,6.28
2023-04-15T23:05:39.815Z,6.93
2023-04-15T23:08:06.629Z,6.88
2023-04-15T23:10:33.578Z,7.03
2023-04-15T23:13:00.597Z,6.60
2023-04-15T23:15:27.486Z,5.90
2023-04-15T23:17:54.751Z,6.45
2023-04-15T23:20:21.787Z,7.40
2023-04-15T23:22:48.994Z,6.68
2023-04-15T23:25:20.666Z,6.75
2023-04-15T23:27:48.157Z,7.20
2023-04-15T23:30:15.578Z,7.15
2023-04-15T23:32:42.807Z,8.30
2023-04-15T23:35:10.444Z,7.43
2023-04-15T23:37:37.730Z,7.18
2023-04-15T23:40:05.466Z,7.45
2023-04-15T23:42:32.968Z,7.15
2023-04-15T23:45:00.253Z,7.38
2023-04-15T23:47:27.220Z,7.82
2023-04-15T23:49:54.398Z,7.95
2023-04-15T23:52:21.126Z,8.27
2023-04-15T23:54:47.964Z,7.88
2023-04-15T23:57:14.793Z,7.13
2023-04-15T23:59:41.566Z,8.18
